createdAt,value
2024-04-13T00:00:40.544Z,12.38
2024-04-13T00:03:10.263Z,11.94
2024-04-13T00:05:37.598Z,11.66
2024-04-13T00:08:07.776Z,11.65
2024-04-13T00:10:34.685Z,11.85
2024-04-13T00:13:04.428Z,11.82
2024-04-13T00:15:34.247Z,12.10
2024-04-13T00:18:04.009Z,11.94
2024-04-13T00:20:30.985Z,11.88
2024-04-13T00:23:01.061Z,11.93
2024-04-13T00:25:30.867Z,11.53
2024-04-13T00:28:00.740Z,11.22
2024-04-13T00:30:27.689Z,11.05
2024-04-13T00:32:59.898Z,11.25
2024-04-13T00:35:27.431Z,11.39
2024-04-13T00:37:56.894Z,11.32
2024-04-13T00:40:23.803Z,11.07
2024-04-13T00:42:53.444Z,11.05
2024-04-13T00:45:20.494Z,11.43
2024-04-13T00:47:50.187Z,11.54
2024-04-13T00:50:20.170Z,11.53
2024-04-13T00:52:51.658Z,11.02
2024-04-13T00:55:19.262Z,11.07
2024-04-13T00:57:49.071Z,10.81
2024-04-13T01:00:17.304Z,10.96
2024-04-13T01:02:48.362Z,10.89
2024-04-13T01:05:15.860Z,11.00
2024-04-13T01:07:49.975Z,11.22
2024-04-13T01:10:18.426Z,11.47
2024-04-13T01:12:48.460Z,11.46
2024-04-13T01:15:16.857Z,11.47
2024-04-13T01:17:48.435Z,11.40
2024-04-13T01:20:16.263Z,11.50
2024-04-13T01:22:49.850Z,11.46
2024-04-13T01:25:23.049Z,11.48
2024-04-13T01:27:52.993Z,11.60
2024-04-13T01:30:23.831Z,11.46
2024-04-13T01:32:53.949Z,11.28
2024-04-13T01:35:21.228Z,11.35
2024-04-13T01:37:50.731Z,11.44
2024-04-13T01:40:20.376Z,11.30
2024-04-13T01:42:49.879Z,11.27
2024-04-13T01:45:16.935Z,11.23
2024-04-13T01:47:46.652Z,11.06
2024-04-13T01:50:14.132Z,10.85
2024-04-13T01:52:43.688Z,10.50
2024-04-13T01:55:10.996Z,10.56
2024-04-13T01:57:43.153Z,10.81
2024-04-13T02:00:10.769Z,10.78
2024-04-13T02:02:40.283Z,10.91
2024-04-13T02:05:07.687Z,10.88
2024-04-13T02:07:37.703Z,10.90
2024-04-13T02:10:07.330Z,10.83
2024-04-13T02:12:36.917Z,10.49
2024-04-13T02:15:07.503Z,10.66
2024-04-13T02:17:37.201Z,10.83
2024-04-13T02:20:04.817Z,10.93
2024-04-13T02:22:36.730Z,10.81
2024-04-13T02:25:04.256Z,10.87
2024-04-13T02:27:35.199Z,10.92
2024-04-13T02:30:03.562Z,11.01
2024-04-13T02:32:35.768Z,11.00
2024-04-13T02:35:02.722Z,10.81
2024-04-13T02:37:33.052Z,10.61
2024-04-13T02:40:00.051Z,10.64
2024-04-13T02:42:30.172Z,10.74
2024-04-13T02:44:57.029Z,10.77
2024-04-13T02:47:27.112Z,10.88
2024-04-13T02:49:56.826Z,10.93
2024-04-13T02:52:27.006Z,10.78
2024-04-13T02:54:54.390Z,10.56
2024-04-13T02:57:23.999Z,10.64
2024-04-13T02:59:50.983Z,10.74
2024-04-13T03:02:21.092Z,10.63
2024-04-13T03:04:51.641Z,10.52
2024-04-13T03:07:24.303Z,10.69
2024-04-13T03:09:51.350Z,10.55
2024-04-13T03:12:20.891Z,10.18
2024-04-13T03:14:47.802Z,10.37
2024-04-13T03:17:17.381Z,10.22
2024-04-13T03:19:44.370Z,10.44
2024-04-13T03:22:13.861Z,10.53
2024-04-13T03:24:43.438Z,10.46
2024-04-13T03:27:13.843Z,10.64
2024-04-13T03:29:41.195Z,10.57
2024-04-13T03:32:11.194Z,10.24
2024-04-13T03:34:38.693Z,10.16
2024-04-13T03:37:08.859Z,10.00
2024-04-13T03:39:38.389Z,10.00
2024-04-13T03:42:10.862Z,10.09
2024-04-13T03:44:37.826Z,10.10
2024-04-13T03:47:07.612Z,9.89
2024-04-13T03:49:34.590Z,9.83
2024-04-13T03:52:04.366Z,10.10
2024-04-13T03:54:31.813Z,10.10
2024-04-13T03:57:01.344Z,10.09
2024-04-13T03:59:30.943Z,10.13
2024-04-13T04:02:01.840Z,10.18
2024-04-13T04:04:29.113Z,10.15
2024-04-13T04:06:59.402Z,9.79
2024-04-13T04:09:26.559Z,9.99
2024-04-13T04:11:56.175Z,9.98
2024-04-13T04:14:23.853Z,10.05
2024-04-13T04:16:56.351Z,10.02
2024-04-13T04:19:23.895Z,10.17
2024-04-13T04:21:55.027Z,10.08
2024-04-13T04:24:24.175Z,10.10
2024-04-13T04:26:54.114Z,10.20
2024-04-13T04:29:21.043Z,10.21
2024-04-13T04:31:50.633Z,9.63
2024-04-13T04:34:20.139Z,9.41
2024-04-13T04:36:49.672Z,9.38
2024-04-13T04:39:19.015Z,9.64
2024-04-13T04:41:48.633Z,9.68
2024-04-13T04:44:15.580Z,9.70
2024-04-13T04:46:46.915Z,9.63
2024-04-13T04:49:14.527Z,9.66
2024-04-13T04:51:47.013Z,9.57
2024-04-13T04:54:13.959Z,9.46
2024-04-13T04:56:43.655Z,9.64
2024-04-13T04:59:10.979Z,9.67
2024-04-13T05:01:40.481Z,9.72
2024-04-13T05:04:07.582Z,9.83
2024-04-13T05:06:37.369Z,9.87
2024-04-13T05:09:08.575Z,9.79
2024-04-13T05:11:38.125Z,9.94
2024-04-13T05:14:05.074Z,9.95
2024-04-13T05:16:35.798Z,9.90
2024-04-13T05:19:04.849Z,9.84
2024-04-13T05:21:34.654Z,9.68
2024-04-13T05:24:01.929Z,9.74
2024-04-13T05:26:34.677Z,9.68
2024-04-13T05:29:04.466Z,9.52
2024-04-13T05:31:34.011Z,9.07
2024-04-13T05:34:00.988Z,9.26
2024-04-13T05:36:30.489Z,9.42
2024-04-13T05:38:57.459Z,9.64
2024-04-13T05:41:27.000Z,9.14
2024-04-13T05:43:56.518Z,9.34
2024-04-13T05:46:26.188Z,9.37
2024-04-13T05:48:53.215Z,9.51
2024-04-13T05:51:22.734Z,9.74
2024-04-13T05:53:49.624Z,9.56
2024-04-13T05:56:19.226Z,9.53
2024-04-13T05:58:46.133Z,9.45
2024-04-13T06:01:18.346Z,9.76
2024-04-13T06:03:45.247Z,9.74
2024-04-13T06:06:14.789Z,9.65
2024-04-13T06:08:41.806Z,9.67
2024-04-13T06:11:11.355Z,9.39
2024-04-13T06:13:38.404Z,9.68
2024-04-13T06:16:08.798Z,9.89
2024-04-13T06:18:38.381Z,10.05
2024-04-13T06:21:08.504Z,10.13
2024-04-13T06:23:35.531Z,9.98
2024-04-13T06:26:06.248Z,9.87
2024-04-13T06:28:33.222Z,10.17
2024-04-13T06:31:02.865Z,10.05
2024-04-13T06:33:30.706Z,10.21
2024-04-13T06:36:02.996Z,10.15
2024-04-13T06:38:31.103Z,9.91
2024-04-13T06:41:00.982Z,9.97
2024-04-13T06:43:27.935Z,10.18
2024-04-13T06:45:57.544Z,10.32
2024-04-13T06:48:24.723Z,10.57
2024-04-13T06:50:54.284Z,10.41
2024-04-13T06:53:24.826Z,10.65
2024-04-13T06:55:54.378Z,10.68
2024-04-13T06:58:24.927Z,10.35
2024-04-13T07:00:59.374Z,10.71
2024-04-13T07:03:26.607Z,10.86
2024-04-13T07:06:00.526Z,11.09
2024-04-13T07:08:30.179Z,11.09
2024-04-13T07:11:00.529Z,11.20
2024-04-13T07:13:28.755Z,11.17
2024-04-13T07:15:58.622Z,11.23
2024-04-13T07:18:25.664Z,11.46
2024-04-13T07:20:55.220Z,11.47
2024-04-13T07:23:22.708Z,11.42
2024-04-13T07:26:03.048Z,11.53
2024-04-13T07:28:31.656Z,11.69
2024-04-13T07:31:01.437Z,11.87
2024-04-13T07:33:29.095Z,11.79
2024-04-13T07:35:58.984Z,11.62
2024-04-13T07:38:26.488Z,11.19
2024-04-13T07:40:56.166Z,11.51
2024-04-13T07:43:30.435Z,11.94
2024-04-13T07:45:57.803Z,12.36
2024-04-13T07:48:27.494Z,12.51
2024-04-13T07:50:54.523Z,12.62
2024-04-13T07:53:24.153Z,12.55
2024-04-13T07:55:51.721Z,12.30
2024-04-13T07:58:21.279Z,12.04
2024-04-13T08:00:51.124Z,12.07
2024-04-13T08:03:20.997Z,11.90
2024-04-13T08:05:47.979Z,12.02
2024-04-13T08:08:17.459Z,12.38
2024-04-13T08:10:47.947Z,12.89
2024-04-13T08:13:15.658Z,13.09
2024-04-13T08:15:45.517Z,12.60
2024-04-13T08:18:16.587Z,12.87
2024-04-13T08:20:46.658Z,13.17
2024-04-13T08:23:15.531Z,13.36
2024-04-13T08:25:46.351Z,13.66
2024-04-13T08:28:13.587Z,13.46
2024-04-13T08:30:44.448Z,13.61
2024-04-13T08:33:14.397Z,13.78
2024-04-13T08:35:44.028Z,14.12
2024-04-13T08:38:13.378Z,14.05
2024-04-13T08:40:44.374Z,14.81
2024-04-13T08:43:11.380Z,15.21
2024-04-13T08:45:41.330Z,15.29
2024-04-13T08:48:11.658Z,15.74
2024-04-13T08:50:46.066Z,15.69
2024-04-13T08:53:15.163Z,15.25
2024-04-13T08:55:45.675Z,15.24
2024-04-13T08:58:16.357Z,15.74
2024-04-13T09:00:51.975Z,15.58
2024-04-13T09:03:20.624Z,15.55
2024-04-13T09:05:53.491Z,16.27
2024-04-13T09:08:23.322Z,16.10
2024-04-13T09:10:55.429Z,15.86
2024-04-13T09:13:22.436Z,15.81
2024-04-13T09:15:52.036Z,16.37
2024-04-13T09:18:19.112Z,16.39
2024-04-13T09:20:49.489Z,16.86
2024-04-13T09:23:19.335Z,16.59
2024-04-13T09:25:49.212Z,17.18
2024-04-13T09:28:16.177Z,17.51
2024-04-13T09:30:45.995Z,17.18
2024-04-13T09:33:14.666Z,17.61
2024-04-13T09:35:44.333Z,18.14
2024-04-13T09:38:19.804Z,17.64
2024-04-13T09:40:49.509Z,17.88
2024-04-13T09:43:21.595Z,18.76
2024-04-13T09:45:51.273Z,18.42
2024-04-13T09:48:18.884Z,18.51
2024-04-13T09:50:48.631Z,18.27
2024-04-13T09:53:15.975Z,18.20
2024-04-13T09:55:48.348Z,18.47
2024-04-13T09:58:16.548Z,18.14
2024-04-13T10:00:47.985Z,18.19
2024-04-13T10:03:15.327Z,18.14
2024-04-13T10:05:47.157Z,18.56
2024-04-13T10:08:15.269Z,18.23
2024-04-13T10:10:51.046Z,18.78
2024-04-13T10:13:24.837Z,18.77
2024-04-13T10:15:55.378Z,18.88
2024-04-13T10:18:24.960Z,19.13
2024-04-13T10:20:59.527Z,19.68
2024-04-13T10:23:26.619Z,19.89
2024-04-13T10:26:02.149Z,19.85
2024-04-13T10:28:29.114Z,19.52
2024-04-13T10:30:59.802Z,20.05
2024-04-13T10:33:30.610Z,19.85
2024-04-13T10:36:01.661Z,19.68
2024-04-13T10:38:30.719Z,19.86
2024-04-13T10:41:03.532Z,20.16
2024-04-13T10:43:31.353Z,20.13
2024-04-13T10:46:03.063Z,20.39
2024-04-13T10:48:31.912Z,20.82
2024-04-13T10:51:03.619Z,21.13
2024-04-13T10:53:30.620Z,21.32
2024-04-13T10:56:02.988Z,21.30
2024-04-13T10:58:30.729Z,20.74
2024-04-13T11:01:01.315Z,21.58
2024-04-13T11:03:29.242Z,20.97
2024-04-13T11:05:59.529Z,21.37
2024-04-13T11:08:29.203Z,21.87
2024-04-13T11:10:57.974Z,21.47
2024-04-13T11:13:31.914Z,22.32
2024-04-13T11:15:59.478Z,23.15
2024-04-13T11:18:30.683Z,22.43
2024-04-13T11:21:02.548Z,22.04
2024-04-13T11:23:32.485Z,22.09
2024-04-13T11:25:59.733Z,22.35
2024-04-13T11:28:32.180Z,23.28
2024-04-13T11:30:59.295Z,22.82
2024-04-13T11:33:29.497Z,22.79
2024-04-13T11:35:58.234Z,23.42
2024-04-13T11:38:30.464Z,23.99
2024-04-13T11:40:57.512Z,23.26
2024-04-13T11:43:27.748Z,22.95
2024-04-13T11:45:57.604Z,22.75
2024-04-13T11:48:31.410Z,23.06
2024-04-13T11:50:58.869Z,23.19
2024-04-13T11:53:29.202Z,23.25
2024-04-13T11:55:57.546Z,23.78
2024-04-13T11:58:27.269Z,23.94
2024-04-13T12:00:54.331Z,24.09
2024-04-13T12:03:26.576Z,24.22
2024-04-13T12:05:53.583Z,24.33
2024-04-13T12:08:23.265Z,24.42
2024-04-13T12:10:50.249Z,24.66
2024-04-13T12:13:20.286Z,24.15
2024-04-13T12:15:47.423Z,24.84
2024-04-13T12:18:17.138Z,24.43
2024-04-13T12:20:46.855Z,24.02
2024-04-13T12:23:17.381Z,24.15
2024-04-13T12:25:44.684Z,23.82
2024-04-13T12:28:14.419Z,24.00
2024-04-13T12:30:43.864Z,24.24
2024-04-13T12:33:13.646Z,24.39
2024-04-13T12:35:41.575Z,24.35
2024-04-13T12:38:13.815Z,25.27
2024-04-13T12:40:41.103Z,25.34
2024-04-13T12:43:11.067Z,25.77
2024-04-13T12:45:38.241Z,25.30
2024-04-13T12:48:09.163Z,25.67
2024-04-13T12:50:36.538Z,26.51
2024-04-13T12:53:06.294Z,26.91
2024-04-13T12:55:36.006Z,26.64
2024-04-13T12:58:06.297Z,25.70
2024-04-13T13:00:33.334Z,25.81
2024-04-13T13:03:03.013Z,26.33
2024-04-13T13:05:31.146Z,25.99
2024-04-13T13:08:00.876Z,26.16
2024-04-13T13:10:28.147Z,26.44
2024-04-13T13:13:00.975Z,25.87
2024-04-13T13:15:29.777Z,26.32
2024-04-13T13:17:59.682Z,26.60
2024-04-13T13:20:26.732Z,26.37
2024-04-13T13:22:56.675Z,26.63
2024-04-13T13:25:23.811Z,25.93
2024-04-13T13:27:54.060Z,25.95
2024-04-13T13:30:23.986Z,25.94
2024-04-13T13:32:55.465Z,25.76
2024-04-13T13:35:22.585Z,25.59
2024-04-13T13:37:52.171Z,26.58
2024-04-13T13:40:19.463Z,27.02
2024-04-13T13:42:49.152Z,26.75
2024-04-13T13:45:16.670Z,25.99
2024-04-13T13:47:49.948Z,26.74
2024-04-13T13:50:17.927Z,26.37
2024-04-13T13:52:50.987Z,26.49
2024-04-13T13:55:19.275Z,25.50
2024-04-13T13:57:48.976Z,25.61
2024-04-13T14:00:16.727Z,25.74
2024-04-13T14:02:49.914Z,26.62
2024-04-13T14:05:17.177Z,26.86
2024-04-13T14:07:46.865Z,27.35
2024-04-13T14:10:14.015Z,26.44
2024-04-13T14:12:44.395Z,25.82
2024-04-13T14:15:11.471Z,25.25
2024-04-13T14:17:41.181Z,25.31
2024-04-13T14:20:11.078Z,25.55
2024-04-13T14:22:41.506Z,25.71
2024-04-13T14:25:08.844Z,26.49
2024-04-13T14:27:38.863Z,26.33
2024-04-13T14:30:07.155Z,26.03
2024-04-13T14:32:36.989Z,26.15
2024-04-13T14:35:04.992Z,26.11
2024-04-13T14:37:37.455Z,25.90
2024-04-13T14:40:05.302Z,25.89
2024-04-13T14:42:34.926Z,25.61
2024-04-13T14:45:02.038Z,25.66
2024-04-13T14:47:31.670Z,26.00
2024-04-13T14:49:58.825Z,25.89
2024-04-13T14:52:30.010Z,25.95
2024-04-13T14:55:00.862Z,25.68
2024-04-13T14:57:30.433Z,25.73
2024-04-13T14:59:57.608Z,24.42
2024-04-13T15:02:27.220Z,24.69
2024-04-13T15:04:54.301Z,23.88
2024-04-13T15:07:24.667Z,23.60
2024-04-13T15:09:52.054Z,24.33
2024-04-13T15:12:24.430Z,24.68
2024-04-13T15:14:53.148Z,25.01
2024-04-13T15:17:22.865Z,24.73
2024-04-13T15:19:50.155Z,24.09
2024-04-13T15:22:19.796Z,23.99
2024-04-13T15:24:46.837Z,24.11
2024-04-13T15:27:16.897Z,23.99
2024-04-13T15:29:46.518Z,24.33
2024-04-13T15:32:16.200Z,24.06
2024-04-13T15:34:43.180Z,23.67
2024-04-13T15:37:12.749Z,23.55
2024-04-13T15:39:39.849Z,23.63
2024-04-13T15:42:10.044Z,23.87
2024-04-13T15:44:37.053Z,23.41
2024-04-13T15:47:09.425Z,23.48
2024-04-13T15:49:36.399Z,23.74
2024-04-13T15:52:06.128Z,23.71
2024-04-13T15:54:33.228Z,23.72
2024-04-13T15:57:02.790Z,22.80
2024-04-13T15:59:30.268Z,23.22
2024-04-13T16:01:59.812Z,23.07
2024-04-13T16:04:29.441Z,23.10
2024-04-13T16:06:59.117Z,23.45
2024-04-13T16:09:26.159Z,23.27
2024-04-13T16:11:55.900Z,23.41
2024-04-13T16:15:05.435Z,23.51
2024-04-13T16:17:36.227Z,23.71
2024-04-13T16:20:07.493Z,23.47
2024-04-13T16:22:37.299Z,23.04
2024-04-13T16:25:04.791Z,22.61
2024-04-13T16:27:34.514Z,22.76
2024-04-13T16:30:01.728Z,22.54
2024-04-13T16:32:31.406Z,22.77
2024-04-13T16:34:58.448Z,23.14
2024-04-13T16:37:31.274Z,23.28
2024-04-13T16:39:59.188Z,23.44
2024-04-13T16:42:29.317Z,23.19
2024-04-13T16:44:56.297Z,23.46
2024-04-13T16:47:26.069Z,23.65
2024-04-13T16:49:53.324Z,23.55
2024-04-13T16:52:23.043Z,23.42
2024-04-13T16:54:53.267Z,23.42
2024-04-13T16:57:22.894Z,23.37
2024-04-13T16:59:49.896Z,23.40
2024-04-13T17:02:19.479Z,23.43
2024-04-13T17:04:46.977Z,23.33
2024-04-13T17:07:16.622Z,23.19
2024-04-13T17:09:43.613Z,22.74
2024-04-13T17:12:15.837Z,22.83
2024-04-13T17:14:42.918Z,22.82
2024-04-13T17:17:12.721Z,22.72
2024-04-13T17:19:39.794Z,22.66
2024-04-13T17:22:09.622Z,22.32
2024-04-13T17:24:36.642Z,22.40
2024-04-13T17:27:06.612Z,22.34
2024-04-13T17:29:36.362Z,22.33
2024-04-13T17:32:06.008Z,22.24
2024-04-13T17:34:35.600Z,22.24
2024-04-13T17:37:02.761Z,22.08
2024-04-13T17:39:32.522Z,22.05
2024-04-13T17:41:59.457Z,21.93
2024-04-13T17:44:29.058Z,21.86
2024-04-13T17:46:58.825Z,21.82
2024-04-13T17:49:28.559Z,21.65
2024-04-13T17:51:55.507Z,21.49
2024-04-13T17:54:25.135Z,21.36
2024-04-13T17:56:52.403Z,21.42
2024-04-13T17:59:22.100Z,21.08
2024-04-13T18:01:49.131Z,20.79
2024-04-13T18:04:21.498Z,20.38
2024-04-13T18:06:48.720Z,20.31
2024-04-13T18:09:18.653Z,20.42
2024-04-13T18:11:48.056Z,20.42
2024-04-13T18:14:17.978Z,20.18
2024-04-13T18:16:45.401Z,19.90
2024-04-13T18:19:15.228Z,19.74
2024-04-13T18:21:45.266Z,19.23
2024-04-13T18:24:20.214Z,19.12
2024-04-13T18:26:47.800Z,19.08
2024-04-13T18:29:17.392Z,18.67
2024-04-13T18:31:44.392Z,18.86
2024-04-13T18:34:14.545Z,18.46
2024-04-13T18:36:44.291Z,18.45
2024-04-13T18:39:15.359Z,18.24
2024-04-13T18:41:42.357Z,18.01
2024-04-13T18:44:12.415Z,18.11
2024-04-13T18:46:39.343Z,18.23
2024-04-13T18:49:08.881Z,18.15
2024-04-13T18:51:35.827Z,18.19
2024-04-13T18:54:08.104Z,17.74
2024-04-13T18:56:35.023Z,17.81
2024-04-13T18:59:05.329Z,17.88
2024-04-13T19:01:33.235Z,18.20
2024-04-13T19:04:04.468Z,18.38
2024-04-13T19:06:32.595Z,18.35
2024-04-13T19:09:02.521Z,18.25
2024-04-13T19:11:32.818Z,18.29
2024-04-13T19:14:02.503Z,18.14
2024-04-13T19:16:29.554Z,17.96
2024-04-13T19:18:59.309Z,17.97
2024-04-13T19:21:26.365Z,18.05
2024-04-13T19:23:55.930Z,17.63
2024-04-13T19:26:22.860Z,17.15
2024-04-13T19:28:55.420Z,17.08
2024-04-13T19:31:22.435Z,17.22
2024-04-13T19:33:52.334Z,17.03
2024-04-13T19:36:19.673Z,16.67
2024-04-13T19:38:49.364Z,16.66
2024-04-13T19:41:18.498Z,16.09
2024-04-13T19:43:48.535Z,15.95
2024-04-13T19:46:18.646Z,16.09
2024-04-13T19:48:48.969Z,16.34
2024-04-13T19:51:16.014Z,16.63
2024-04-13T19:53:49.933Z,16.85
2024-04-13T19:56:17.032Z,16.93
2024-04-13T19:58:46.800Z,17.01
2024-04-13T20:01:13.889Z,16.89
2024-04-13T20:03:46.302Z,16.66
2024-04-13T20:06:13.554Z,16.78
2024-04-13T20:08:45.786Z,16.06
2024-04-13T20:11:12.813Z,15.93
2024-04-13T20:13:43.219Z,16.17
2024-04-13T20:16:28.773Z,16.41
2024-04-13T20:19:01.046Z,16.21
2024-04-13T20:21:30.656Z,16.18
2024-04-13T20:24:00.210Z,16.33
2024-04-13T20:26:30.315Z,16.39
2024-04-13T20:28:59.994Z,16.32
2024-04-13T20:31:26.932Z,15.95
2024-04-13T20:33:56.637Z,15.67
2024-04-13T20:36:26.340Z,15.03
2024-04-13T20:38:57.361Z,14.95
2024-04-13T20:41:24.331Z,14.97
2024-04-13T20:43:53.836Z,14.98
2024-04-13T20:46:20.828Z,15.20
2024-04-13T20:48:51.771Z,15.09
2024-04-13T20:51:18.831Z,14.92
2024-04-13T20:53:51.541Z,14.41
2024-04-13T20:56:18.900Z,14.76
2024-04-13T20:58:48.460Z,15.24
2024-04-13T21:01:15.605Z,15.31
2024-04-13T21:03:45.290Z,15.36
2024-04-13T21:06:14.158Z,15.36
2024-04-13T21:08:43.755Z,15.53
2024-04-13T21:11:13.508Z,15.42
2024-04-13T21:13:43.099Z,15.54
2024-04-13T21:16:10.284Z,15.50
2024-04-13T21:18:39.928Z,15.04
2024-04-13T21:21:06.929Z,15.19
2024-04-13T21:23:37.027Z,15.07
2024-04-13T21:26:04.424Z,15.16
2024-04-13T21:28:36.661Z,15.16
2024-04-13T21:31:04.358Z,15.15
2024-04-13T21:33:34.311Z,15.31
2024-04-13T21:36:01.403Z,15.32
2024-04-13T21:38:31.088Z,14.97
2024-04-13T21:40:59.938Z,14.76
2024-04-13T21:43:29.520Z,14.76
2024-04-13T21:45:59.191Z,14.79
2024-04-13T21:48:28.697Z,15.01
2024-04-13T21:50:55.698Z,14.86
2024-04-13T21:53:25.374Z,14.71
2024-04-13T21:55:52.339Z,14.49
2024-04-13T21:58:21.871Z,14.58
2024-04-13T22:00:48.796Z,14.56
2024-04-13T22:03:21.290Z,14.76
2024-04-13T22:05:48.301Z,14.92
2024-04-13T22:08:17.935Z,14.57
2024-04-13T22:10:44.939Z,14.32
2024-04-13T22:13:14.595Z,14.33
2024-04-13T22:15:41.631Z,14.24
2024-04-13T22:18:11.807Z,14.12
2024-04-13T22:20:41.384Z,14.09
2024-04-13T22:23:11.268Z,13.90
2024-04-13T22:25:38.699Z,13.95
2024-04-13T22:28:08.641Z,13.91
2024-04-13T22:30:35.591Z,13.66
2024-04-13T22:33:05.205Z,12.62
2024-04-13T22:35:32.183Z,13.30
2024-04-13T22:38:04.469Z,13.32
2024-04-13T22:40:31.388Z,13.51
2024-04-13T22:43:01.193Z,13.25
2024-04-13T22:45:28.313Z,13.37
2024-04-13T22:47:57.978Z,13.10
2024-04-13T22:50:25.006Z,12.75
2024-04-13T22:52:54.579Z,13.07
2024-04-13T22:55:24.223Z,12.97
2024-04-13T22:57:53.914Z,13.16
2024-04-13T23:00:21.199Z,13.36
2024-04-13T23:02:50.754Z,13.40
2024-04-13T23:05:17.615Z,13.42
2024-04-13T23:07:47.130Z,13.53
2024-04-13T23:10:14.338Z,13.63
2024-04-13T23:12:46.544Z,13.48
2024-04-13T23:15:14.059Z,13.89
2024-04-13T23:17:43.578Z,13.86
2024-04-13T23:20:12.259Z,13.61
2024-04-13T23:22:41.761Z,13.25
2024-04-13T23:25:09.041Z,12.71
2024-04-13T23:27:38.705Z,13.01
2024-04-13T23:30:09.136Z,12.98
2024-04-13T23:32:39.241Z,12.77
2024-04-13T23:35:06.927Z,13.15
2024-04-13T23:37:36.588Z,13.27
2024-04-13T23:40:03.852Z,13.42
2024-04-13T23:42:33.380Z,13.36
2024-04-13T23:45:00.351Z,13.53
2024-04-13T23:47:32.423Z,13.23
2024-04-13T23:49:59.634Z,13.08
2024-04-13T23:52:29.436Z,12.69
2024-04-13T23:54:56.938Z,12.85
2024-04-13T23:57:26.836Z,12.73
2024-04-13T23:59:53.763Z,12.94
